Time;durP1;ratioP1;P1;durP2;ratioP2;P2;SDS_P1;SDS_P2;PMS_P1;PMS_P2;Temp;Humidity;BMP_temperature;BMP_pressure;BME280_temperature;BME280_humidity;BME280_pressure;Samples;Min_cycle;Max_cycle;Signal;HPM_P1;HPM_P2
2023/02/26 00:00:08;;;;;;;68.32;6.80;;;1.80;24.20;;;;;;4999830;28;20253;-85
2023/02/26 00:02:37;;;;;;;67.38;5.78;;;1.80;24.10;;;;;;4999639;28;20543;-84
2023/02/26 00:05:05;;;;;;;68.32;6.05;;;1.70;19.60;;;;;;4999360;28;20685;-85
2023/02/26 00:07:30;;;;;;;69.03;5.38;;;1.70;22.40;;;;;;4999570;28;20249;-84
2023/02/26 00:09:59;;;;;;;67.20;4.90;;;1.70;23.40;;;;;;4998483;28;20216;-84
2023/02/26 00:12:25;;;;;;;71.32;5.70;;;1.70;22.90;;;;;;4999225;28;20448;-85
2023/02/26 00:14:51;;;;;;;69.60;6.25;;;1.70;23.80;;;;;;4999561;28;20218;-84
2023/02/26 00:17:29;;;;;;;79.38;5.85;;;1.60;22.10;;;;;;4999334;28;20214;-84
2023/02/26 00:19:55;;;;;;;69.95;6.53;;;1.70;23.60;;;;;;4998537;28;20178;-84
2023/02/26 00:22:21;;;;;;;71.63;6.47;;;1.60;24.00;;;;;;4999444;28;20178;-83
2023/02/26 00:24:47;;;;;;;68.00;6.43;;;1.70;24.60;;;;;;4999463;28;20642;-85
2023/02/26 00:27:13;;;;;;;69.30;6.17;;;1.60;25.60;;;;;;4999135;28;20190;-85
2023/02/26 00:29:39;;;;;;;71.60;7.03;;;1.60;26.40;;;;;;4997414;28;20181;-84
2023/02/26 00:32:05;;;;;;;70.43;6.77;;;1.60;29.30;;;;;;4997888;28;20222;-84
2023/02/26 00:34:31;;;;;;;71.22;6.35;;;1.60;31.40;;;;;;4997519;28;20414;-84
2023/02/26 00:37:14;;;;;;;67.97;6.25;;;1.60;35.00;;;;;;4997493;28;20170;-84
2023/02/26 00:39:55;;;;;;;68.57;6.25;;;1.60;34.10;;;;;;4998049;28;20186;-84
2023/02/26 00:42:21;;;;;;;67.25;6.22;;;1.70;33.60;;;;;;4998767;28;20523;-84
2023/02/26 00:44:50;;;;;;;70.97;6.53;;;1.70;32.00;;;;;;4998210;28;20238;-84
2023/02/26 00:47:50;;;;;;;67.90;5.85;;;1.70;35.40;;;;;;4998022;28;20758;-85
2023/02/26 00:50:16;;;;;;;73.75;6.45;;;1.70;34.50;;;;;;4997039;28;20166;-84
2023/02/26 00:53:09;;;;;;;68.23;6.27;;;1.70;33.30;;;;;;4998320;28;20179;-84
2023/02/26 00:55:35;;;;;;;67.95;6.43;;;1.80;35.60;;;;;;4996146;28;20405;-83
2023/02/26 00:58:01;;;;;;;72.17;6.57;;;1.80;32.70;;;;;;4996069;28;20265;-83
2023/02/26 01:00:27;;;;;;;70.13;6.37;;;1.70;31.90;;;;;;4995908;28;20330;-83
2023/02/26 01:02:52;;;;;;;66.67;5.77;;;1.70;31.00;;;;;;4998382;28;20422;-85
2023/02/26 01:05:19;;;;;;;72.90;7.20;;;1.80;34.90;;;;;;5000486;28;20476;-84
2023/02/26 01:07:56;;;;;;;68.35;6.60;;;1.80;35.00;;;;;;4998933;28;20757;-85
2023/02/26 01:10:22;;;;;;;70.65;7.72;;;1.80;30.30;;;;;;4998498;28;20166;-85
2023/02/26 01:12:49;;;;;;;71.50;6.70;;;1.90;30.20;;;;;;4999518;28;20553;-85
2023/02/26 01:15:15;;;;;;;70.07;6.53;;;1.90;26.70;;;;;;4998632;28;20166;-85
2023/02/26 01:18:07;;;;;;;71.60;6.03;;;1.90;29.10;;;;;;4998889;28;20162;-84
2023/02/26 01:20:41;;;;;;;66.35;5.70;;;1.80;25.90;;;;;;4999938;28;20265;-85
2023/02/26 01:23:13;;;;;;;68.75;6.38;;;1.80;27.70;;;;;;4999177;28;20179;-84
2023/02/26 01:25:41;;;;;;;68.45;6.10;;;1.80;28.50;;;;;;4997391;28;20245;-85
2023/02/26 01:28:07;;;;;;;73.22;6.70;;;1.80;25.80;;;;;;4997781;28;20273;-85
2023/02/26 01:30:33;;;;;;;70.10;5.25;;;1.80;24.00;;;;;;4997259;28;20243;-84
2023/02/26 01:33:28;;;;;;;65.68;5.30;;;1.80;23.20;;;;;;4999059;28;20183;-85
2023/02/26 01:36:02;;;;;;;66.63;5.28;;;1.80;27.00;;;;;;4994437;28;20186;-83
2023/02/26 01:38:46;;;;;;;68.00;6.35;;;1.70;27.60;;;;;;4996041;28;20159;-84
2023/02/26 01:41:15;;;;;;;66.00;5.50;;;1.70;33.60;;;;;;4995700;28;20197;-83
2023/02/26 01:44:07;;;;;;;69.80;6.55;;;1.70;36.00;;;;;;4996692;28;20658;-84
2023/02/26 01:46:33;;;;;;;70.70;5.47;;;1.60;36.90;;;;;;4974330;28;20179;-84
2023/02/26 01:49:00;;;;;;;68.97;6.40;;;1.50;43.20;;;;;;4995511;28;20167;-83
2023/02/26 01:51:43;;;;;;;68.10;6.15;;;1.40;47.90;;;;;;4994860;28;20190;-84
2023/02/26 01:54:10;;;;;;;69.75;6.03;;;1.30;53.00;;;;;;4998899;28;20534;-84
2023/02/26 01:56:36;;;;;;;66.25;5.88;;;1.20;55.80;;;;;;4998630;28;20185;-83
2023/02/26 01:59:04;;;;;;;65.97;5.68;;;1.10;61.50;;;;;;5000101;28;20175;-84
2023/02/26 02:01:32;;;;;;;65.68;5.18;;;1.00;70.20;;;;;;5000299;28;20251;-84
2023/02/26 02:03:59;;;;;;;72.63;6.60;;;0.90;75.90;;;;;;4999746;28;20169;-83
2023/02/26 02:06:26;;;;;;;68.03;6.00;;;0.80;82.70;;;;;;4999855;28;20221;-83
2023/02/26 02:08:52;;;;;;;66.70;5.15;;;0.70;91.30;;;;;;4999744;28;20159;-83
2023/02/26 02:11:19;;;;;;;67.88;6.55;;;0.70;92.20;;;;;;4998057;28;20175;-83
2023/02/26 02:13:50;;;;;;;70.05;6.85;;;0.70;93.60;;;;;;4999744;28;20170;-83
2023/02/26 02:17:01;;;;;;;68.95;7.38;;;0.80;93.50;;;;;;4999496;28;20573;-84
2023/02/26 02:19:53;;;;;;;68.18;10.75;;;0.80;91.40;;;;;;4999804;28;20242;-83
2023/02/26 02:22:58;;;;;;;74.00;8.82;;;0.90;93.30;;;;;;4982737;28;20199;-84
2023/02/26 02:25:45;;;;;;;71.07;6.70;;;1.10;84.70;;;;;;4997856;28;20685;-83
2023/02/26 02:28:38;;;;;;;67.35;5.93;;;1.20;75.90;;;;;;4998303;28;20190;-84
2023/02/26 02:31:12;;;;;;;67.65;5.93;;;1.20;73.90;;;;;;4999580;28;20159;-83
2023/02/26 02:34:10;;;;;;;70.22;6.07;;;1.20;68.60;;;;;;4997989;28;20162;-83
2023/02/26 02:36:45;;;;;;;71.28;6.05;;;1.20;67.20;;;;;;4983283;28;20187;-85
2023/02/26 02:39:23;;;;;;;67.13;6.13;;;1.20;62.10;;;;;;5002814;28;20158;-84
2023/02/26 02:41:57;;;;;;;66.95;5.22;;;1.10;62.90;;;;;;5001864;28;20190;-84
2023/02/26 02:44:26;;;;;;;67.93;5.97;;;1.20;62.70;;;;;;5002112;28;20159;-84
2023/02/26 02:46:54;;;;;;;66.78;5.80;;;1.20;58.10;;;;;;4999754;28;20190;-84
2023/02/26 02:49:35;;;;;;;66.68;6.90;;;1.20;56.90;;;;;;4998891;28;20163;-84
2023/02/26 02:52:09;;;;;;;72.43;6.18;;;1.10;59.10;;;;;;4997404;28;20277;-83
2023/02/26 02:54:54;;;;;;;68.90;6.15;;;1.10;60.30;;;;;;4998898;28;20170;-83
2023/02/26 02:57:36;;;;;;;67.70;5.32;;;1.10;60.80;;;;;;4998737;28;20567;-83
2023/02/26 03:00:10;;;;;;;68.40;5.88;;;1.10;61.60;;;;;;4997524;28;20214;-83
2023/02/26 03:02:41;;;;;;;72.90;6.10;;;1.10;57.80;;;;;;4998290;28;20662;-84
2023/02/26 03:05:07;;;;;;;67.18;5.07;;;1.10;58.30;;;;;;4998200;28;20163;-83
2023/02/26 03:07:38;;;;;;;71.78;6.30;;;1.20;53.70;;;;;;4996982;28;20175;-83
2023/02/26 03:10:05;;;;;;;66.07;5.78;;;1.10;54.60;;;;;;4999463;28;20213;-83
2023/02/26 03:12:31;;;;;;;70.43;6.57;;;1.10;58.40;;;;;;4997999;28;20191;-83
2023/02/26 03:14:58;;;;;;;70.70;5.50;;;1.00;58.00;;;;;;4998378;28;20177;-85
2023/02/26 03:17:58;;;;;;;67.28;6.53;;;1.00;59.20;;;;;;4998081;28;20166;-84
2023/02/26 03:20:57;;;;;;;67.88;5.82;;;0.90;63.40;;;;;;4998393;28;20179;-83
2023/02/26 03:23:34;;;;;;;68.15;6.38;;;0.90;66.70;;;;;;4982014;28;20757;-83
2023/02/26 03:26:14;;;;;;;72.13;6.85;;;0.80;72.40;;;;;;4997022;28;20158;-85
2023/02/26 03:29:17;;;;;;;68.90;5.78;;;0.60;78.90;;;;;;4997597;28;20146;-84
2023/02/26 03:31:52;;;;;;;70.45;6.55;;;0.50;88.10;;;;;;4940797;29;20191;-83
2023/02/26 03:34:30;;;;;;;69.60;6.85;;;0.50;89.60;;;;;;4989070;28;20257;-84
2023/02/26 03:37:22;;;;;;;67.97;7.75;;;0.40;91.80;;;;;;4996149;28;20159;-84
2023/02/26 03:39:57;;;;;;;68.45;7.03;;;0.40;92.60;;;;;;4997877;28;20686;-83
2023/02/26 03:42:38;;;;;;;68.03;8.48;;;0.40;94.20;;;;;;4996704;28;20205;-84
2023/02/26 03:45:12;;;;;;;68.15;9.20;;;0.40;94.10;;;;;;4996552;28;20162;-84
2023/02/26 03:47:41;;;;;;;71.85;9.45;;;0.30;94.20;;;;;;4998226;28;20216;-83
2023/02/26 03:50:13;;;;;;;69.68;10.18;;;0.30;95.30;;;;;;4997729;28;20182;-83
2023/02/26 03:52:43;;;;;;;69.80;10.63;;;0.30;96.40;;;;;;4997544;28;20186;-83
2023/02/26 03:55:25;;;;;;;69.20;9.20;;;0.40;92.10;;;;;;4997229;28;20189;-83
2023/02/26 03:57:51;;;;;;;71.00;8.98;;;0.50;90.60;;;;;;4997005;28;20479;-82
2023/02/26 04:00:17;;;;;;;70.33;9.40;;;0.50;85.40;;;;;;4996816;28;20240;-84
2023/02/26 04:02:46;;;;;;;69.85;8.75;;;0.40;87.40;;;;;;4997724;28;20433;-84
2023/02/26 04:05:20;;;;;;;68.95;8.23;;;0.50;86.90;;;;;;4996533;28;20650;-83
2023/02/26 04:07:48;;;;;;;75.47;7.57;;;0.50;83.30;;;;;;4998369;28;20158;-85
2023/02/26 04:10:18;;;;;;;67.93;7.47;;;0.50;83.80;;;;;;4998080;28;20221;-83
2023/02/26 04:12:44;;;;;;;71.38;8.65;;;0.60;81.40;;;;;;5001561;28;20213;-85
2023/02/26 04:15:10;;;;;;;72.80;9.70;;;0.50;74.40;;;;;;4999556;28;20167;-85
2023/02/26 04:17:36;;;;;;;66.57;8.00;;;0.60;75.10;;;;;;4999878;28;20170;-84
2023/02/26 04:20:06;;;;;;;68.20;7.97;;;0.70;67.20;;;;;;5001247;28;20246;-85
2023/02/26 04:22:33;;;;;;;67.78;7.35;;;0.70;65.90;;;;;;4999572;28;20201;-85
2023/02/26 04:24:58;;;;;;;66.45;6.95;;;0.60;62.50;;;;;;5000566;28;20511;-85
2023/02/26 04:27:24;;;;;;;67.73;6.10;;;0.50;64.80;;;;;;5000288;28;20186;-85
2023/02/26 04:29:50;;;;;;;71.30;8.00;;;0.50;68.30;;;;;;5000356;28;20171;-85
2023/02/26 04:32:15;;;;;;;66.23;6.80;;;0.60;70.20;;;;;;5000248;28;20250;-85
2023/02/26 04:34:44;;;;;;;67.20;7.10;;;0.60;66.00;;;;;;4998082;28;20650;-84
2023/02/26 04:37:10;;;;;;;70.10;7.68;;;0.50;64.90;;;;;;4996580;28;20181;-85
2023/02/26 04:39:35;;;;;;;69.33;8.03;;;0.60;63.90;;;;;;4996399;28;20163;-84
2023/02/26 04:42:03;;;;;;;68.37;7.23;;;0.60;62.10;;;;;;4996391;28;20186;-84
2023/02/26 04:44:29;;;;;;;66.32;6.85;;;0.60;59.10;;;;;;4996918;28;20209;-85
2023/02/26 04:46:56;;;;;;;71.05;6.18;;;0.60;59.40;;;;;;4996487;28;20254;-84
2023/02/26 04:49:22;;;;;;;69.53;7.68;;;0.60;61.40;;;;;;4996262;28;20193;-85
2023/02/26 04:51:48;;;;;;;67.95;6.45;;;0.60;58.20;;;;;;4996101;28;20186;-84
2023/02/26 04:54:13;;;;;;;66.00;6.27;;;0.60;58.00;;;;;;4995208;28;20253;-83
2023/02/26 04:56:41;;;;;;;77.10;6.10;;;0.60;57.00;;;;;;4995258;28;20178;-84
2023/02/26 04:59:07;;;;;;;67.95;6.32;;;0.60;57.50;;;;;;4996367;28;20197;-84
2023/02/26 05:01:33;;;;;;;67.90;5.90;;;0.50;60.60;;;;;;4996533;28;20203;-83
2023/02/26 05:04:01;;;;;;;69.17;6.17;;;0.50;57.20;;;;;;4994954;28;20500;-83
2023/02/26 05:06:26;;;;;;;67.25;5.70;;;0.50;57.30;;;;;;4994934;28;20167;-84
2023/02/26 05:08:52;;;;;;;66.77;6.20;;;0.40;61.40;;;;;;4994762;28;20185;-82
2023/02/26 05:11:18;;;;;;;66.37;6.17;;;0.30;67.10;;;;;;4995078;28;20182;-84
2023/02/26 05:13:44;;;;;;;70.07;5.53;;;0.30;66.20;;;;;;4994950;28;20261;-84
2023/02/26 05:16:09;;;;;;;68.23;6.27;;;0.20;65.10;;;;;;4996452;28;20253;-84
2023/02/26 05:18:36;;;;;;;68.97;5.60;;;0.30;63.60;;;;;;4996363;28;20835;-84
2023/02/26 05:21:02;;;;;;;67.13;6.30;;;0.30;64.20;;;;;;4996568;28;20565;-84
2023/02/26 05:23:28;;;;;;;68.45;6.20;;;0.40;61.30;;;;;;4996411;28;20658;-81
2023/02/26 05:25:55;;;;;;;67.30;6.17;;;0.30;60.70;;;;;;4996355;28;20163;-85
2023/02/26 05:28:21;;;;;;;68.32;5.88;;;0.20;64.90;;;;;;5081378;22;20234;-85
2023/02/26 05:30:47;;;;;;;69.93;5.88;;;0.20;64.70;;;;;;5013627;28;20177;-85
2023/02/26 05:33:13;;;;;;;66.37;5.57;;;0.20;68.80;;;;;;5013053;28;20749;-85
2023/02/26 05:35:39;;;;;;;68.30;5.63;;;0.20;68.00;;;;;;5014131;28;20406;-85
2023/02/26 05:38:05;;;;;;;67.00;5.97;;;0.20;63.60;;;;;;5012663;28;20178;-85
2023/02/26 05:40:30;;;;;;;69.83;6.97;;;0.20;59.60;;;;;;5012561;28;20193;-85
2023/02/26 05:42:56;;;;;;;69.40;6.50;;;0.20;57.80;;;;;;5013399;28;20425;-85
2023/02/26 05:45:22;;;;;;;66.50;6.03;;;0.10;59.80;;;;;;5014310;28;20171;-85
2023/02/26 05:47:47;;;;;;;66.80;6.07;;;0.00;64.40;;;;;;5013675;28;20167;-85
2023/02/26 05:50:13;;;;;;;66.13;6.13;;;0.00;74.20;;;;;;5013432;28;20194;-85
2023/02/26 05:52:39;;;;;;;65.40;6.13;;;0.10;71.60;;;;;;5013182;28;20201;-85
2023/02/26 05:55:06;;;;;;;66.17;6.37;;;0.00;68.00;;;;;;5014111;28;20171;-85
2023/02/26 05:57:31;;;;;;;66.18;6.55;;;0.00;71.20;;;;;;5012477;28;20437;-85
2023/02/26 05:59:57;;;;;;;68.40;6.37;;;-0.20;76.70;;;;;;5012165;28;20211;-85
2023/02/26 06:02:23;;;;;;;67.63;7.07;;;-0.20;82.00;;;;;;5011562;28;20445;-85
2023/02/26 06:04:49;;;;;;;65.93;6.90;;;-0.20;82.30;;;;;;5012845;28;20412;-85
2023/02/26 06:07:15;;;;;;;68.27;7.83;;;-0.10;78.80;;;;;;5011158;28;20177;-85
2023/02/26 06:09:41;;;;;;;67.50;9.27;;;0.00;76.20;;;;;;5012569;28;20433;-85
2023/02/26 06:12:06;;;;;;;68.40;7.40;;;0.00;72.10;;;;;;5012092;28;20218;-85
2023/02/26 06:14:33;;;;;;;66.77;6.90;;;0.00;71.30;;;;;;5012727;28;20738;-85
2023/02/26 06:16:58;;;;;;;70.75;8.20;;;0.10;70.30;;;;;;5010669;28;20640;-85
2023/02/26 06:19:27;;;;;;;69.37;7.10;;;0.10;66.20;;;;;;5011445;28;20213;-85
2023/02/26 06:21:53;;;;;;;68.97;6.72;;;0.20;65.40;;;;;;5011572;28;20206;-85
2023/02/26 06:24:18;;;;;;;67.87;6.37;;;0.30;61.70;;;;;;5010515;28;20656;-85
2023/02/26 06:26:44;;;;;;;67.70;7.03;;;0.20;59.90;;;;;;5011129;28;20163;-85
2023/02/26 06:29:10;;;;;;;68.07;6.70;;;0.20;62.00;;;;;;5011276;28;20561;-85
2023/02/26 06:31:36;;;;;;;70.53;6.43;;;0.20;62.20;;;;;;5008818;28;20425;-84
2023/02/26 06:34:02;;;;;;;67.05;6.45;;;0.30;59.50;;;;;;5007057;28;20234;-84
2023/02/26 06:36:28;;;;;;;69.30;5.73;;;0.20;57.10;;;;;;5007301;28;20173;-84
2023/02/26 06:38:53;;;;;;;67.30;6.40;;;0.30;58.60;;;;;;5006111;28;20197;-84
2023/02/26 06:41:19;;;;;;;68.67;6.83;;;0.30;62.00;;;;;;5006803;28;20481;-84
2023/02/26 06:43:45;;;;;;;68.13;6.40;;;0.30;59.40;;;;;;5006196;28;20221;-84
2023/02/26 06:46:11;;;;;;;72.83;6.63;;;0.20;58.00;;;;;;5007571;28;20198;-84
2023/02/26 06:48:37;;;;;;;66.70;6.37;;;0.20;59.40;;;;;;5007298;28;20166;-85
2023/02/26 06:51:03;;;;;;;68.27;8.90;;;0.20;58.10;;;;;;5006126;28;20473;-83
2023/02/26 06:53:29;;;;;;;68.60;9.48;;;0.00;60.70;;;;;;5005895;28;20441;-84
2023/02/26 06:55:55;;;;;;;73.80;12.53;;;0.00;64.90;;;;;;5007256;28;20166;-84
2023/02/26 06:58:23;;;;;;;72.33;11.10;;;0.00;64.70;;;;;;5006539;28;20432;-84
2023/02/26 07:00:49;;;;;;;69.32;10.68;;;0.00;63.40;;;;;;5006160;28;20195;-84
2023/02/26 07:03:16;;;;;;;69.25;10.40;;;0.10;63.10;;;;;;5006586;28;20684;-84
2023/02/26 07:05:44;;;;;;;70.38;12.13;;;0.10;65.40;;;;;;5006795;28;20178;-84
2023/02/26 07:08:10;;;;;;;71.20;12.82;;;0.10;64.70;;;;;;5007403;28;20159;-84
2023/02/26 07:10:36;;;;;;;67.70;9.60;;;0.10;61.10;;;;;;5006541;28;20182;-85
2023/02/26 07:13:02;;;;;;;68.70;8.85;;;0.20;63.30;;;;;;5006759;28;20191;-85
2023/02/26 07:15:28;;;;;;;67.95;9.93;;;0.20;60.50;;;;;;5007237;28;20167;-84
2023/02/26 07:17:54;;;;;;;70.57;8.52;;;0.30;57.40;;;;;;5007363;28;20186;-84
2023/02/26 07:20:21;;;;;;;69.35;8.38;;;0.30;57.90;;;;;;5007386;28;20732;-85
2023/02/26 07:22:47;;;;;;;67.25;8.70;;;0.30;56.20;;;;;;5007250;28;20613;-84
2023/02/26 07:25:15;;;;;;;70.95;10.98;;;0.30;55.00;;;;;;5007058;28;20169;-84
2023/02/26 07:27:41;;;;;;;69.32;8.27;;;0.30;54.10;;;;;;5006840;28;20181;-85
2023/02/26 07:30:08;;;;;;;68.83;9.40;;;0.40;55.70;;;;;;5007312;28;20179;-84
2023/02/26 07:32:34;;;;;;;69.90;10.77;;;0.40;54.70;;;;;;5006582;28;20453;-85
2023/02/26 07:35:00;;;;;;;68.55;10.27;;;0.30;54.40;;;;;;5007224;28;20171;-85
2023/02/26 07:37:27;;;;;;;73.18;9.38;;;0.30;56.20;;;;;;5006230;28;20182;-85
2023/02/26 07:39:54;;;;;;;69.45;9.27;;;0.40;56.90;;;;;;5006907;28;22029;-84
2023/02/26 07:42:20;;;;;;;68.30;8.73;;;0.40;55.60;;;;;;5007208;28;20201;-84
2023/02/26 07:44:49;;;;;;;73.82;12.52;;;0.50;54.40;;;;;;5005224;28;20673;-84
2023/02/26 07:47:15;;;;;;;70.95;10.73;;;0.50;55.20;;;;;;5005753;28;20173;-84
2023/02/26 07:49:41;;;;;;;70.57;9.00;;;0.60;49.90;;;;;;5005638;28;20171;-85
2023/02/26 07:52:07;;;;;;;73.50;8.40;;;0.60;49.70;;;;;;5006070;28;20433;-84
2023/02/26 07:54:35;;;;;;;73.50;9.10;;;0.60;47.80;;;;;;5006288;28;20170;-85
2023/02/26 07:57:02;;;;;;;73.63;10.07;;;0.60;50.10;;;;;;5006475;28;20163;-84
2023/02/26 07:59:30;;;;;;;70.05;9.13;;;0.60;47.70;;;;;;5005506;28;20166;-84
2023/02/26 08:01:56;;;;;;;78.25;9.05;;;0.70;44.20;;;;;;5006662;28;20358;-84
2023/02/26 08:04:22;;;;;;;71.80;9.33;;;0.70;44.80;;;;;;5005542;28;20201;-85
2023/02/26 08:06:48;;;;;;;68.80;8.57;;;0.80;43.30;;;;;;5006232;28;20409;-84
2023/02/26 08:09:14;;;;;;;68.68;8.15;;;0.80;43.80;;;;;;5006831;28;20662;-85
2023/02/26 08:11:42;;;;;;;68.60;9.27;;;0.80;41.40;;;;;;5005316;28;20199;-84
2023/02/26 08:14:09;;;;;;;71.30;9.95;;;0.80;40.50;;;;;;5004726;28;20557;-84
2023/02/26 08:16:35;;;;;;;71.15;8.38;;;0.80;37.80;;;;;;5005378;28;20163;-84
2023/02/26 08:19:01;;;;;;;68.30;7.73;;;0.80;40.50;;;;;;5005416;28;20174;-84
2023/02/26 08:21:27;;;;;;;70.70;6.88;;;0.90;42.10;;;;;;5005532;28;20230;-85
2023/02/26 08:23:53;;;;;;;76.55;8.15;;;0.90;43.00;;;;;;5006828;28;20165;-85
2023/02/26 08:26:19;;;;;;;68.00;7.33;;;0.90;39.60;;;;;;5006353;28;20159;-81
2023/02/26 08:28:46;;;;;;;73.50;8.40;;;1.00;33.20;;;;;;5008947;28;20222;-84
2023/02/26 08:31:12;;;;;;;67.03;6.57;;;1.00;34.10;;;;;;5006665;28;20162;-84
2023/02/26 08:33:38;;;;;;;69.03;6.63;;;1.10;31.20;;;;;;5006953;28;20193;-84
2023/02/26 08:36:04;;;;;;;69.85;7.78;;;1.10;29.60;;;;;;5007240;28;20185;-84
2023/02/26 08:38:31;;;;;;;72.75;6.32;;;1.10;30.80;;;;;;5007205;28;20173;-84
2023/02/26 08:40:57;;;;;;;68.13;6.47;;;1.10;27.70;;;;;;5006479;28;20202;-84
2023/02/26 08:43:24;;;;;;;67.30;6.35;;;1.10;27.20;;;;;;5006655;28;20210;-84
2023/02/26 08:45:53;;;;;;;70.60;7.80;;;1.10;25.50;;;;;;5005909;28;20218;-84
2023/02/26 08:48:19;;;;;;;70.05;6.90;;;1.00;32.20;;;;;;5005115;28;20221;-84
2023/02/26 08:50:45;;;;;;;69.93;8.65;;;1.10;30.30;;;;;;5007026;28;20167;-84
2023/02/26 08:53:11;;;;;;;68.18;6.40;;;1.20;27.40;;;;;;5007161;28;20200;-84
2023/02/26 08:55:37;;;;;;;67.43;6.85;;;1.20;27.10;;;;;;5005913;28;20253;-84
2023/02/26 08:58:03;;;;;;;67.90;7.87;;;1.30;24.90;;;;;;5007471;28;20526;-84
2023/02/26 09:00:29;;;;;;;67.37;6.57;;;1.30;21.40;;;;;;5006451;28;20190;-84
2023/02/26 09:02:55;;;;;;;67.88;6.50;;;1.30;21.60;;;;;;5006600;28;20179;-84
2023/02/26 09:05:21;;;;;;;67.90;6.73;;;1.40;19.30;;;;;;5007429;28;20174;-84
2023/02/26 09:07:46;;;;;;;67.43;5.90;;;1.50;20.10;;;;;;5007115;28;20420;-83
2023/02/26 09:10:19;;;;;;;67.60;7.80;;;1.60;24.40;;;;;;5007866;28;20174;-84
2023/02/26 09:12:45;;;;;;;67.38;6.75;;;1.70;28.00;;;;;;5007833;28;20186;-84
2023/02/26 09:15:13;;;;;;;67.80;6.63;;;1.70;16.20;;;;;;5006286;28;20171;-84
2023/02/26 09:17:39;;;;;;;70.95;7.10;;;1.70;10.80;;;;;;5007179;28;20170;-84
2023/02/26 09:20:05;;;;;;;66.60;6.25;;;1.80;10.50;;;;;;5007050;28;20182;-84
2023/02/26 09:22:31;;;;;;;67.15;6.15;;;1.70;3.20;;;;;;5008008;28;20184;-84
2023/02/26 09:24:57;;;;;;;68.20;6.15;;;1.70;3.70;;;;;;5007027;28;20181;-84
2023/02/26 09:27:24;;;;;;;68.93;6.73;;;1.80;2.90;;;;;;5007413;28;20178;-84
2023/02/26 09:29:52;;;;;;;68.15;6.80;;;1.80;4.30;;;;;;5006986;28;20163;-84
2023/02/26 09:32:18;;;;;;;70.00;6.85;;;1.80;1.00;;;;;;5006694;28;20190;-84
2023/02/26 09:34:44;;;;;;;67.70;6.03;;;1.90;1.00;;;;;;5007157;28;20186;-83
2023/02/26 09:37:10;;;;;;;67.60;6.80;;;2.00;1.00;;;;;;5007515;28;20173;-84
2023/02/26 09:39:36;;;;;;;70.18;7.20;;;2.10;1.00;;;;;;5006238;28;20226;-84
2023/02/26 09:42:43;;;;;;;69.90;6.80;;;2.10;1.00;;;;;;5005632;28;20724;-84
2023/02/26 09:45:23;;;;;;;67.07;6.18;;;2.20;1.00;;;;;;4974494;28;20187;-84
2023/02/26 09:47:53;;;;;;;68.82;5.85;;;2.30;1.00;;;;;;5008098;28;20157;-84
2023/02/26 09:50:30;;;;;;;69.20;6.43;;;2.50;1.00;;;;;;5007708;28;20197;-84
2023/02/26 09:53:21;;;;;;;67.40;5.07;;;2.50;1.00;;;;;;5007288;28;20190;-84
2023/02/26 09:55:49;;;;;;;68.18;4.55;;;2.70;1.00;;;;;;5005370;28;20214;-84
2023/02/26 09:58:49;;;;;;;67.07;5.28;;;2.70;1.00;;;;;;5006002;28;20163;-84
2023/02/26 10:01:47;;;;;;;68.60;5.25;;;2.70;1.00;;;;;;5004965;28;20241;-84
2023/02/26 10:04:35;;;;;;;69.10;5.28;;;2.80;1.00;;;;;;5007197;28;20147;-84
2023/02/26 10:07:24;;;;;;;69.70;5.68;;;2.90;1.00;;;;;;5008960;28;20211;-84
2023/02/26 10:10:13;;;;;;;66.57;5.60;;;3.20;1.00;;;;;;5008196;28;20562;-83
2023/02/26 10:12:42;;;;;;;65.60;5.00;;;3.20;1.00;;;;;;5009242;28;20189;-83
2023/02/26 10:15:13;;;;;;;66.35;5.80;;;3.20;1.00;;;;;;5009977;28;20171;-84
2023/02/26 10:18:03;;;;;;;69.00;5.78;;;3.10;1.00;;;;;;5013117;28;20155;-84
2023/02/26 10:20:59;;;;;;;66.18;4.68;;;3.30;1.00;;;;;;5012381;28;20182;-84
2023/02/26 10:23:34;;;;;;;65.18;4.57;;;3.30;1.00;;;;;;5012094;28;20163;-84
2023/02/26 10:26:12;;;;;;;65.43;5.45;;;3.40;1.00;;;;;;5009899;28;20170;-84
2023/02/26 10:28:56;;;;;;;65.28;4.65;;;3.30;1.00;;;;;;5009102;28;20212;-84
2023/02/26 10:31:28;;;;;;;65.63;4.78;;;3.00;1.00;;;;;;5009267;28;20221;-84
2023/02/26 10:34:01;;;;;;;64.45;5.40;;;2.90;1.00;;;;;;5009055;28;20694;-84
2023/02/26 10:36:33;;;;;;;65.03;4.88;;;2.80;1.00;;;;;;5010100;28;20158;-84
2023/02/26 10:39:34;;;;;;;66.15;4.90;;;2.90;1.00;;;;;;5010779;28;20166;-84
2023/02/26 10:42:09;;;;;;;67.80;5.00;;;3.10;1.00;;;;;;4988810;28;20221;-83
2023/02/26 10:44:52;;;;;;;65.18;5.15;;;3.30;1.00;;;;;;5008976;28;20166;-84
2023/02/26 10:47:27;;;;;;;64.82;4.50;;;3.40;1.00;;;;;;5010149;28;20182;-84
2023/02/26 10:50:04;;;;;;;63.88;3.80;;;3.70;1.00;;;;;;5009835;28;20166;-84
2023/02/26 10:52:32;;;;;;;65.18;4.40;;;3.90;1.00;;;;;;5009542;28;20225;-84
2023/02/26 10:55:07;;;;;;;64.45;3.70;;;4.00;1.00;;;;;;5010845;28;20677;-84
2023/02/26 10:57:41;;;;;;;64.90;4.38;;;4.30;1.00;;;;;;5008905;28;20237;-84
2023/02/26 11:00:13;;;;;;;64.72;4.65;;;4.30;1.00;;;;;;5010807;28;20250;-83
2023/02/26 11:02:44;;;;;;;69.53;3.85;;;4.70;1.00;;;;;;5007743;28;20187;-84
2023/02/26 11:05:19;;;;;;;65.93;4.80;;;4.90;1.00;;;;;;5010784;28;20147;-85
2023/02/26 11:07:49;;;;;;;64.32;4.40;;;4.90;1.00;;;;;;5012055;28;20159;-84
2023/02/26 11:10:21;;;;;;;66.15;3.85;;;4.80;1.00;;;;;;5011065;28;20174;-83
2023/02/26 11:12:47;;;;;;;65.07;5.20;;;4.80;1.00;;;;;;5010292;28;20190;-84
2023/02/26 11:15:17;;;;;;;66.32;4.45;;;4.80;1.00;;;;;;5010161;28;20171;-83
2023/02/26 11:17:46;;;;;;;64.82;4.45;;;4.70;1.00;;;;;;5009406;28;20569;-84
2023/02/26 11:20:23;;;;;;;65.55;4.30;;;4.70;1.00;;;;;;5009269;28;20189;-83
2023/02/26 11:22:52;;;;;;;64.50;4.53;;;4.60;1.00;;;;;;5010902;28;20193;-83
2023/02/26 11:25:23;;;;;;;64.47;3.92;;;4.30;1.00;;;;;;5008950;28;20206;-83
2023/02/26 11:28:02;;;;;;;64.70;3.80;;;4.20;1.00;;;;;;5083198;22;20222;-84
2023/02/26 11:30:36;;;;;;;65.50;3.80;;;4.10;1.00;;;;;;4999434;28;20177;-85
2023/02/26 11:33:36;;;;;;;68.60;4.95;;;4.10;1.00;;;;;;4998885;28;20264;-85
2023/02/26 11:36:08;;;;;;;65.43;4.35;;;4.10;1.00;;;;;;4978010;28;20209;-84
2023/02/26 11:38:45;;;;;;;66.15;3.72;;;4.10;1.00;;;;;;5000243;28;20511;-85
2023/02/26 11:41:21;;;;;;;64.30;4.25;;;4.10;1.00;;;;;;4999732;28;20187;-84
2023/02/26 11:44:02;;;;;;;64.97;4.85;;;4.10;1.00;;;;;;4997603;28;20200;-84
2023/02/26 11:46:28;;;;;;;68.90;4.20;;;3.90;1.00;;;;;;4999244;28;20151;-85
2023/02/26 11:48:57;;;;;;;67.78;4.60;;;3.80;1.00;;;;;;5000029;28;20526;-84
2023/02/26 11:51:28;;;;;;;66.93;4.25;;;3.90;1.00;;;;;;5000583;28;20241;-84
2023/02/26 11:54:00;;;;;;;65.15;4.25;;;3.80;1.00;;;;;;5001019;28;20167;-84
2023/02/26 11:56:39;;;;;;;66.25;4.00;;;3.70;1.00;;;;;;5002095;28;20151;-84
2023/02/26 11:59:25;;;;;;;68.00;4.60;;;3.80;1.00;;;;;;4999452;28;20162;-84
2023/02/26 12:01:52;;;;;;;76.47;9.38;;;4.10;1.00;;;;;;4999792;28;20198;-84
2023/02/26 12:04:21;;;;;;;70.65;7.10;;;4.40;1.00;;;;;;4999822;28;20166;-84
2023/02/26 12:06:54;;;;;;;70.82;5.38;;;4.70;1.00;;;;;;4998633;28;20167;-85
2023/02/26 12:09:25;;;;;;;67.93;5.88;;;4.90;1.00;;;;;;4999705;28;20625;-84
2023/02/26 12:11:56;;;;;;;70.07;6.38;;;5.20;1.00;;;;;;4998434;28;20384;-84
2023/02/26 12:14:25;;;;;;;66.93;5.43;;;5.20;1.00;;;;;;4999697;28;20222;-85
2023/02/26 12:17:31;;;;;;;65.90;6.07;;;4.90;1.00;;;;;;4998308;28;20202;-85
2023/02/26 12:20:27;;;;;;;65.32;5.47;;;4.70;1.00;;;;;;4998015;28;20174;-85
2023/02/26 12:22:56;;;;;;;64.75;5.40;;;4.80;1.00;;;;;;4999858;28;20241;-85
2023/02/26 12:25:51;;;;;;;64.82;5.90;;;4.60;1.00;;;;;;4998670;28;20240;-84
2023/02/26 12:28:50;;;;;;;69.30;5.25;;;4.40;1.00;;;;;;4999714;28;20178;-85
2023/02/26 12:31:31;;;;;;;66.50;6.25;;;4.30;1.00;;;;;;4999436;28;20273;-83
2023/02/26 12:34:15;;;;;;;69.28;6.82;;;4.40;1.00;;;;;;5001257;28;20155;-84
2023/02/26 12:37:24;;;;;;;67.03;6.30;;;4.60;1.00;;;;;;5001681;28;20606;-84
2023/02/26 12:40:10;;;;;;;64.88;5.75;;;4.80;1.00;;;;;;4996741;28;20193;-84
2023/02/26 12:42:51;;;;;;;66.65;5.43;;;5.20;1.00;;;;;;5000636;28;20197;-84
2023/02/26 12:45:46;;;;;;;66.65;6.05;;;5.40;1.00;;;;;;5001508;28;20150;-85
2023/02/26 12:48:41;;;;;;;65.47;5.57;;;5.40;1.00;;;;;;5000350;28;20158;-85
2023/02/26 12:51:41;;;;;;;66.10;5.10;;;5.30;1.00;;;;;;5000938;28;20238;-85
2023/02/26 12:54:06;;;;;;;65.47;4.30;;;5.50;1.00;;;;;;5001266;28;20155;-84
2023/02/26 12:57:09;;;;;;;67.37;5.07;;;5.40;1.00;;;;;;5000979;28;20166;-84
2023/02/26 13:00:05;;;;;;;64.10;4.22;;;5.10;1.00;;;;;;5000612;28;20248;-84
2023/02/26 13:02:48;;;;;;;66.00;5.35;;;5.10;1.00;;;;;;4998191;28;20212;-84
2023/02/26 13:05:31;;;;;;;71.63;5.57;;;5.30;1.00;;;;;;4999622;28;20507;-85
2023/02/26 13:08:11;;;;;;;66.40;4.30;;;5.00;1.00;;;;;;4999909;28;20158;-84
2023/02/26 13:11:19;;;;;;;68.32;5.85;;;5.00;1.00;;;;;;4998799;28;20169;-84
2023/02/26 13:13:52;;;;;;;65.20;5.10;;;5.00;1.00;;;;;;5000351;28;20221;-84